sensor_id;sensor_type;location;lat;lon;timestamp;pressure;altitude;pressure_sealevel;temperature;humidity
78613;BME280;67933;51.060;3.638;2023-03-23T00:00:43;100328.41;;;12.03;78.76
78613;BME280;67933;51.060;3.638;2023-03-23T00:03:09;100319.84;;;11.99;78.52
78613;BME280;67933;51.060;3.638;2023-03-23T00:05:34;100339.28;;;12.00;78.82
78613;BME280;67933;51.060;3.638;2023-03-23T00:08:02;100346.13;;;11.91;79.44
78613;BME280;67933;51.060;3.638;2023-03-23T00:10:28;100344.31;;;11.91;79.32
78613;BME280;67933;51.060;3.638;2023-03-23T00:12:58;100352.78;;;11.97;79.05
78613;BME280;67933;51.060;3.638;2023-03-23T00:15:27;100351.94;;;11.96;78.88
78613;BME280;67933;51.060;3.638;2023-03-23T00:17:55;100352.59;;;12.00;79.03
78613;BME280;67933;51.060;3.638;2023-03-23T00:20:28;100361.91;;;11.92;79.87
78613;BME280;67933;51.060;3.638;2023-03-23T00:22:55;100352.78;;;11.97;79.73
78613;BME280;67933;51.060;3.638;2023-03-23T00:25:25;100356.09;;;11.87;79.71
78613;BME280;67933;51.060;3.638;2023-03-23T00:27:51;100359.72;;;11.86;79.88
78613;BME280;67933;51.060;3.638;2023-03-23T00:30:16;100352.19;;;11.80;79.57
78613;BME280;67933;51.060;3.638;2023-03-23T00:32:43;100346.66;;;11.83;79.64
78613;BME280;67933;51.060;3.638;2023-03-23T00:35:08;100343.97;;;11.71;79.98
78613;BME280;67933;51.060;3.638;2023-03-23T00:37:34;100367.03;;;11.70;80.36
78613;BME280;67933;51.060;3.638;2023-03-23T00:40:01;100339.31;;;11.74;79.77
78613;BME280;67933;51.060;3.638;2023-03-23T00:42:31;100347.91;;;11.78;79.44
78613;BME280;67933;51.060;3.638;2023-03-23T00:45:02;100332.81;;;11.78;79.89
78613;BME280;67933;51.060;3.638;2023-03-23T00:47:27;100345.66;;;11.72;79.80
78613;BME280;67933;51.060;3.638;2023-03-23T00:49:53;100365.78;;;11.76;80.05
78613;BME280;67933;51.060;3.638;2023-03-23T00:52:21;100351.56;;;11.77;79.32
78613;BME280;67933;51.060;3.638;2023-03-23T00:54:46;100348.66;;;11.80;78.90
78613;BME280;67933;51.060;3.638;2023-03-23T00:57:12;100330.16;;;11.78;78.97
78613;BME280;67933;51.060;3.638;2023-03-23T00:59:37;100333.78;;;11.77;79.07
78613;BME280;67933;51.060;3.638;2023-03-23T01:02:03;100339.84;;;11.79;79.04
78613;BME280;67933;51.060;3.638;2023-03-23T01:04:28;100336.97;;;11.82;79.38
78613;BME280;67933;51.060;3.638;2023-03-23T01:06:56;100331.75;;;11.81;79.25
78613;BME280;67933;51.060;3.638;2023-03-23T01:09:22;100341.97;;;11.74;79.78
78613;BME280;67933;51.060;3.638;2023-03-23T01:11:50;100339.00;;;11.79;79.42
78613;BME280;67933;51.060;3.638;2023-03-23T01:14:17;100327.31;;;11.81;80.39
78613;BME280;67933;51.060;3.638;2023-03-23T01:16:43;100329.09;;;11.81;79.41
78613;BME280;67933;51.060;3.638;2023-03-23T01:19:09;100317.41;;;11.83;79.68
78613;BME280;67933;51.060;3.638;2023-03-23T01:21:36;100312.63;;;11.88;79.44
78613;BME280;67933;51.060;3.638;2023-03-23T01:24:01;100308.16;;;11.89;79.66
78613;BME280;67933;51.060;3.638;2023-03-23T01:26:27;100318.13;;;11.85;79.71
78613;BME280;67933;51.060;3.638;2023-03-23T01:28:53;100315.16;;;11.77;80.26
78613;BME280;67933;51.060;3.638;2023-03-23T01:31:22;100299.88;;;11.81;79.07
78613;BME280;67933;51.060;3.638;2023-03-23T01:33:48;100311.69;;;11.77;79.66
78613;BME280;67933;51.060;3.638;2023-03-23T01:36:25;100322.00;;;11.81;79.96
78613;BME280;67933;51.060;3.638;2023-03-23T01:38:54;100317.41;;;11.83;79.69
78613;BME280;67933;51.060;3.638;2023-03-23T01:41:20;100326.56;;;11.79;79.90
78613;BME280;67933;51.060;3.638;2023-03-23T01:43:56;100323.44;;;11.85;79.90
78613;BME280;67933;51.060;3.638;2023-03-23T01:46:24;100337.94;;;11.81;79.26
78613;BME280;67933;51.060;3.638;2023-03-23T01:48:50;100331.75;;;11.81;79.12
78613;BME280;67933;51.060;3.638;2023-03-23T01:51:17;100329.53;;;11.87;78.54
78613;BME280;67933;51.060;3.638;2023-03-23T01:53:52;100322.94;;;11.80;78.54
78613;BME280;67933;51.060;3.638;2023-03-23T01:56:21;100344.63;;;11.87;79.38
78613;BME280;67933;51.060;3.638;2023-03-23T01:58:50;100335.88;;;11.98;78.41
78613;BME280;67933;51.060;3.638;2023-03-23T02:01:16;100331.72;;;11.93;78.07
78613;BME280;67933;51.060;3.638;2023-03-23T02:03:44;100331.41;;;11.98;78.12
78613;BME280;67933;51.060;3.638;2023-03-23T02:06:10;100326.00;;;12.00;77.90
78613;BME280;67933;51.060;3.638;2023-03-23T02:08:36;100338.09;;;12.04;77.79
78613;BME280;67933;51.060;3.638;2023-03-23T02:11:20;100326.94;;;11.99;78.35
78613;BME280;67933;51.060;3.638;2023-03-23T02:13:46;100310.59;;;11.92;78.42
78613;BME280;67933;51.060;3.638;2023-03-23T02:22:21;100324.28;;;11.99;77.73
78613;BME280;67933;51.060;3.638;2023-03-23T02:25:15;100312.16;;;11.94;77.89
78613;BME280;67933;51.060;3.638;2023-03-23T02:30:56;100310.06;;;12.00;76.75
78613;BME280;67933;51.060;3.638;2023-03-23T02:33:29;100299.44;;;11.87;77.01
78613;BME280;67933;51.060;3.638;2023-03-23T02:36:01;100326.41;;;11.93;77.41
78613;BME280;67933;51.060;3.638;2023-03-23T02:41:10;100311.22;;;11.95;77.16
78613;BME280;67933;51.060;3.638;2023-03-23T02:43:40;100305.69;;;11.99;76.56
78613;BME280;67933;51.060;3.638;2023-03-23T02:46:10;100302.38;;;11.95;76.34
78613;BME280;67933;51.060;3.638;2023-03-23T02:48:36;100310.25;;;11.97;76.46
78613;BME280;67933;51.060;3.638;2023-03-23T02:51:04;100306.97;;;11.93;76.30
78613;BME280;67933;51.060;3.638;2023-03-23T02:53:31;100311.22;;;11.95;76.85
78613;BME280;67933;51.060;3.638;2023-03-23T02:55:59;100317.47;;;11.94;76.13
78613;BME280;67933;51.060;3.638;2023-03-23T02:58:28;100318.97;;;11.99;75.80
78613;BME280;67933;51.060;3.638;2023-03-23T03:00:54;100308.84;;;12.04;75.90
78613;BME280;67933;51.060;3.638;2023-03-23T03:03:23;100304.72;;;12.00;76.38
78613;BME280;67933;51.060;3.638;2023-03-23T03:06:21;100302.19;;;11.73;77.83
78613;BME280;67933;51.060;3.638;2023-03-23T03:08:59;100309.53;;;11.56;79.39
78613;BME280;67933;51.060;3.638;2023-03-23T03:11:29;100310.28;;;11.46;80.14
78613;BME280;67933;51.060;3.638;2023-03-23T03:14:02;100331.34;;;11.36;80.86
78613;BME280;67933;51.060;3.638;2023-03-23T03:21:51;100302.66;;;11.41;80.15
78613;BME280;67933;51.060;3.638;2023-03-23T03:24:19;100299.06;;;11.30;82.10
78613;BME280;67933;51.060;3.638;2023-03-23T03:26:47;100305.63;;;11.24;82.61
78613;BME280;67933;51.060;3.638;2023-03-23T03:29:16;100300.13;;;11.14;82.40
78613;BME280;67933;51.060;3.638;2023-03-23T03:31:44;100299.97;;;11.16;82.92
78613;BME280;67933;51.060;3.638;2023-03-23T03:34:12;100290.44;;;11.13;83.01
78613;BME280;67933;51.060;3.638;2023-03-23T03:36:44;100304.44;;;11.15;82.50
78613;BME280;67933;51.060;3.638;2023-03-23T03:39:12;100299.34;;;11.25;81.79
78613;BME280;67933;51.060;3.638;2023-03-23T03:41:40;100292.34;;;11.24;82.15
78613;BME280;67933;51.060;3.638;2023-03-23T03:44:06;100315.84;;;11.30;81.67
78613;BME280;67933;51.060;3.638;2023-03-23T03:46:33;100320.06;;;11.33;80.92
78613;BME280;67933;51.060;3.638;2023-03-23T03:48:59;100326.66;;;11.40;80.89
78613;BME280;67933;51.060;3.638;2023-03-23T03:51:26;100319.09;;;11.46;80.21
78613;BME280;67933;51.060;3.638;2023-03-23T03:53:52;100312.31;;;11.42;79.98
78613;BME280;67933;51.060;3.638;2023-03-23T03:56:18;100320.72;;;11.49;79.48
78613;BME280;67933;51.060;3.638;2023-03-23T03:58:45;100315.19;;;11.52;78.92
78613;BME280;67933;51.060;3.638;2023-03-23T04:01:10;100319.00;;;11.48;79.26
78613;BME280;67933;51.060;3.638;2023-03-23T04:03:36;100322.84;;;11.44;80.08
78613;BME280;67933;51.060;3.638;2023-03-23T04:06:03;100329.44;;;11.51;79.22
78613;BME280;67933;51.060;3.638;2023-03-23T04:08:28;100333.47;;;11.44;80.04
78613;BME280;67933;51.060;3.638;2023-03-23T04:10:54;100335.69;;;11.50;79.11
78613;BME280;67933;51.060;3.638;2023-03-23T04:13:20;100338.25;;;11.51;79.02
78613;BME280;67933;51.060;3.638;2023-03-23T04:15:47;100329.53;;;11.49;79.56
78613;BME280;67933;51.060;3.638;2023-03-23T04:18:13;100326.25;;;11.58;78.40
78613;BME280;67933;51.060;3.638;2023-03-23T04:20:41;100338.97;;;11.66;78.08
78613;BME280;67933;51.060;3.638;2023-03-23T04:23:07;100336.44;;;11.65;78.03
78613;BME280;67933;51.060;3.638;2023-03-23T04:25:33;100337.28;;;11.65;77.57
78613;BME280;67933;51.060;3.638;2023-03-23T04:27:59;100334.97;;;11.61;78.43
78613;BME280;67933;51.060;3.638;2023-03-23T04:30:27;100327.28;;;11.56;78.48
78613;BME280;67933;51.060;3.638;2023-03-23T04:32:54;100338.88;;;11.55;79.04
78613;BME280;67933;51.060;3.638;2023-03-23T04:35:22;100342.16;;;11.46;79.16
78613;BME280;67933;51.060;3.638;2023-03-23T04:37:48;100332.19;;;11.37;80.31
78613;BME280;67933;51.060;3.638;2023-03-23T04:40:15;100334.97;;;11.23;81.70
78613;BME280;67933;51.060;3.638;2023-03-23T04:42:42;100326.25;;;11.21;80.84
78613;BME280;67933;51.060;3.638;2023-03-23T04:45:17;100329.09;;;11.17;81.63
78613;BME280;67933;51.060;3.638;2023-03-23T04:47:49;100332.50;;;11.19;81.16
78613;BME280;67933;51.060;3.638;2023-03-23T04:50:20;100341.09;;;11.23;80.83
78613;BME280;67933;51.060;3.638;2023-03-23T04:52:49;100335.56;;;11.26;79.94
78613;BME280;67933;51.060;3.638;2023-03-23T04:55:17;100344.72;;;11.22;80.66
78613;BME280;67933;51.060;3.638;2023-03-23T04:57:42;100340.31;;;11.08;82.30
78613;BME280;67933;51.060;3.638;2023-03-23T05:00:10;100345.09;;;11.03;82.07
78613;BME280;67933;51.060;3.638;2023-03-23T05:02:41;100342.97;;;11.08;81.31
78613;BME280;67933;51.060;3.638;2023-03-23T05:05:08;100349.56;;;11.03;81.07
78613;BME280;67933;51.060;3.638;2023-03-23T05:07:36;100338.84;;;11.04;81.15
78613;BME280;67933;51.060;3.638;2023-03-23T05:10:02;100349.88;;;10.98;82.09
78613;BME280;67933;51.060;3.638;2023-03-23T05:12:27;100345.94;;;10.91;82.21
78613;BME280;67933;51.060;3.638;2023-03-23T05:14:53;100356.84;;;10.87;82.80
78613;BME280;67933;51.060;3.638;2023-03-23T05:17:18;100368.22;;;10.89;82.84
78613;BME280;67933;51.060;3.638;2023-03-23T05:19:44;100360.78;;;10.81;82.88
78613;BME280;67933;51.060;3.638;2023-03-23T05:22:15;100377.28;;;10.72;84.69
78613;BME280;67933;51.060;3.638;2023-03-23T05:24:41;100374.38;;;10.62;85.63
78613;BME280;67933;51.060;3.638;2023-03-23T05:27:08;100388.13;;;10.55;86.33
78613;BME280;67933;51.060;3.638;2023-03-23T05:29:34;100376.03;;;10.51;86.80
78613;BME280;67933;51.060;3.638;2023-03-23T05:32:03;100388.41;;;10.37;87.44
78613;BME280;67933;51.060;3.638;2023-03-23T05:34:29;100385.16;;;10.32;87.14
78613;BME280;67933;51.060;3.638;2023-03-23T05:36:58;100392.75;;;10.24;87.70
78613;BME280;67933;51.060;3.638;2023-03-23T05:39:23;100395.00;;;10.16;87.99
78613;BME280;67933;51.060;3.638;2023-03-23T05:41:48;100405.44;;;10.05;88.80
78613;BME280;67933;51.060;3.638;2023-03-23T05:44:14;100414.44;;;10.02;89.11
78613;BME280;67933;51.060;3.638;2023-03-23T05:46:39;100413.19;;;9.94;89.32
78613;BME280;67933;51.060;3.638;2023-03-23T05:49:05;100415.84;;;9.80;89.67
78613;BME280;67933;51.060;3.638;2023-03-23T05:51:30;100410.16;;;9.72;89.76
78613;BME280;67933;51.060;3.638;2023-03-23T05:53:56;100415.66;;;9.69;89.92
78613;BME280;67933;51.060;3.638;2023-03-23T05:56:22;100412.81;;;9.57;89.37
78613;BME280;67933;51.060;3.638;2023-03-23T05:58:47;100432.47;;;9.53;90.58
78613;BME280;67933;51.060;3.638;2023-03-23T06:01:13;100429.25;;;9.48;89.68
78613;BME280;67933;51.060;3.638;2023-03-23T06:03:39;100436.41;;;9.46;88.67
78613;BME280;67933;51.060;3.638;2023-03-23T06:06:05;100423.16;;;9.32;89.32
78613;BME280;67933;51.060;3.638;2023-03-23T06:08:30;100419.72;;;9.30;89.13
78613;BME280;67933;51.060;3.638;2023-03-23T06:10:56;100407.47;;;9.29;89.17
78613;BME280;67933;51.060;3.638;2023-03-23T06:13:22;100401.78;;;9.21;89.38
78613;BME280;67933;51.060;3.638;2023-03-23T06:15:48;100415.94;;;9.20;88.90
78613;BME280;67933;51.060;3.638;2023-03-23T06:18:14;100416.19;;;9.15;88.86
78613;BME280;67933;51.060;3.638;2023-03-23T06:20:40;100432.16;;;9.14;88.74
78613;BME280;67933;51.060;3.638;2023-03-23T06:23:07;100432.16;;;9.14;89.42
78613;BME280;67933;51.060;3.638;2023-03-23T06:25:34;100438.44;;;9.13;89.45
78613;BME280;67933;51.060;3.638;2023-03-23T06:27:59;100424.06;;;9.17;88.64
78613;BME280;67933;51.060;3.638;2023-03-23T06:30:25;100435.31;;;9.20;89.06
78613;BME280;67933;51.060;3.638;2023-03-23T06:32:52;100442.50;;;9.18;88.25
78613;BME280;67933;51.060;3.638;2023-03-23T06:35:17;100449.59;;;9.18;89.12
78613;BME280;67933;51.060;3.638;2023-03-23T06:37:43;100451.38;;;9.17;88.82
78613;BME280;67933;51.060;3.638;2023-03-23T06:40:08;100472.25;;;9.22;88.54
78613;BME280;67933;51.060;3.638;2023-03-23T06:42:35;100470.31;;;9.25;88.32
78613;BME280;67933;51.060;3.638;2023-03-23T06:45:01;100462.72;;;9.19;88.12
78613;BME280;67933;51.060;3.638;2023-03-23T06:47:27;100455.28;;;9.26;87.08
78613;BME280;67933;51.060;3.638;2023-03-23T06:49:57;100450.66;;;9.30;86.50
78613;BME280;67933;51.060;3.638;2023-03-23T06:52:23;100457.47;;;9.34;85.73
78613;BME280;67933;51.060;3.638;2023-03-23T06:54:50;100446.03;;;9.33;86.12
78613;BME280;67933;51.060;3.638;2023-03-23T06:57:16;100447.06;;;9.31;85.45
78613;BME280;67933;51.060;3.638;2023-03-23T06:59:42;100465.69;;;9.29;85.88
78613;BME280;67933;51.060;3.638;2023-03-23T07:02:11;100456.78;;;9.30;85.56
78613;BME280;67933;51.060;3.638;2023-03-23T07:04:38;100445.47;;;9.28;85.63
78613;BME280;67933;51.060;3.638;2023-03-23T07:07:04;100452.28;;;9.32;86.16
78613;BME280;67933;51.060;3.638;2023-03-23T07:09:30;100440.34;;;9.25;85.65
78613;BME280;67933;51.060;3.638;2023-03-23T07:11:56;100445.47;;;9.28;86.87
78613;BME280;67933;51.060;3.638;2023-03-23T07:14:21;100451.88;;;9.24;86.46
78613;BME280;67933;51.060;3.638;2023-03-23T07:16:47;100466.22;;;9.20;87.03
78613;BME280;67933;51.060;3.638;2023-03-23T07:19:13;100475.03;;;9.20;87.31
78613;BME280;67933;51.060;3.638;2023-03-23T07:21:38;100465.13;;;9.38;85.92
78613;BME280;67933;51.060;3.638;2023-03-23T07:24:04;100473.47;;;9.46;86.39
78613;BME280;67933;51.060;3.638;2023-03-23T07:26:29;100472.28;;;9.52;86.36
78613;BME280;67933;51.060;3.638;2023-03-23T07:28:54;100466.72;;;9.56;86.16
78613;BME280;67933;51.060;3.638;2023-03-23T07:31:20;100480.06;;;9.69;86.52
78613;BME280;67933;51.060;3.638;2023-03-23T07:33:45;100484.25;;;9.73;86.27
78613;BME280;67933;51.060;3.638;2023-03-23T07:36:11;100481.84;;;9.69;86.77
78613;BME280;67933;51.060;3.638;2023-03-23T07:38:37;100483.78;;;9.67;87.01
78613;BME280;67933;51.060;3.638;2023-03-23T07:41:04;100479.22;;;9.69;87.13
78613;BME280;67933;51.060;3.638;2023-03-23T07:43:30;100486.22;;;9.70;86.81
78613;BME280;67933;51.060;3.638;2023-03-23T07:45:55;100488.25;;;9.94;86.75
78613;BME280;67933;51.060;3.638;2023-03-23T07:48:21;100485.28;;;10.29;85.80
78613;BME280;67933;51.060;3.638;2023-03-23T07:50:47;100487.63;;;10.33;84.91
78613;BME280;67933;51.060;3.638;2023-03-23T07:53:13;100497.19;;;10.36;84.74
78613;BME280;67933;51.060;3.638;2023-03-23T07:55:38;100495.56;;;10.48;84.08
78613;BME280;67933;51.060;3.638;2023-03-23T07:58:04;100509.41;;;10.38;84.27
78613;BME280;67933;51.060;3.638;2023-03-23T08:00:29;100515.69;;;10.37;83.14
78613;BME280;67933;51.060;3.638;2023-03-23T08:02:56;100517.75;;;10.32;83.37
78613;BME280;67933;51.060;3.638;2023-03-23T08:05:22;100520.91;;;10.80;82.29
78613;BME280;67933;51.060;3.638;2023-03-23T08:07:48;100514.41;;;12.42;75.96
78613;BME280;67933;51.060;3.638;2023-03-23T08:10:15;100503.75;;;13.52;71.22
78613;BME280;67933;51.060;3.638;2023-03-23T08:12:43;100489.66;;;13.96;68.21
78613;BME280;67933;51.060;3.638;2023-03-23T08:15:11;100500.03;;;13.65;69.71
78613;BME280;67933;51.060;3.638;2023-03-23T08:17:41;100503.44;;;14.58;67.30
78613;BME280;67933;51.060;3.638;2023-03-23T08:20:07;100504.50;;;15.00;64.98
78613;BME280;67933;51.060;3.638;2023-03-23T08:22:37;100515.97;;;15.23;64.57
78613;BME280;67933;51.060;3.638;2023-03-23T08:25:04;100504.78;;;15.29;63.65
78613;BME280;67933;51.060;3.638;2023-03-23T08:27:31;100517.81;;;14.00;67.84
78613;BME280;67933;51.060;3.638;2023-03-23T08:29:57;100520.00;;;14.06;68.07
78613;BME280;67933;51.060;3.638;2023-03-23T08:32:22;100511.81;;;14.76;67.60
78613;BME280;67933;51.060;3.638;2023-03-23T08:34:49;100503.66;;;14.99;68.26
78613;BME280;67933;51.060;3.638;2023-03-23T08:37:15;100510.06;;;15.08;65.45
78613;BME280;67933;51.060;3.638;2023-03-23T08:39:40;100520.00;;;14.17;67.57
78613;BME280;67933;51.060;3.638;2023-03-23T08:42:05;100509.19;;;13.50;68.27
78613;BME280;67933;51.060;3.638;2023-03-23T08:44:31;100523.09;;;13.06;71.11
78613;BME280;67933;51.060;3.638;2023-03-23T08:46:57;100506.03;;;13.21;71.14
78613;BME280;67933;51.060;3.638;2023-03-23T08:49:23;100500.03;;;14.56;67.99
78613;BME280;67933;51.060;3.638;2023-03-23T08:51:49;100515.06;;;15.01;64.02
78613;BME280;67933;51.060;3.638;2023-03-23T08:54:14;100496.84;;;15.91;62.83
78613;BME280;67933;51.060;3.638;2023-03-23T08:56:42;100505.38;;;16.06;60.52
78613;BME280;67933;51.060;3.638;2023-03-23T08:59:07;100501.97;;;15.30;63.72
78613;BME280;67933;51.060;3.638;2023-03-23T09:01:33;100509.59;;;15.35;63.71
78613;BME280;67933;51.060;3.638;2023-03-23T09:03:59;100519.97;;;15.28;65.38
78613;BME280;67933;51.060;3.638;2023-03-23T09:06:25;100521.25;;;15.77;63.60
78613;BME280;67933;51.060;3.638;2023-03-23T09:08:51;100518.53;;;16.09;62.53
78613;BME280;67933;51.060;3.638;2023-03-23T09:11:17;100539.13;;;15.97;60.93
78613;BME280;67933;51.060;3.638;2023-03-23T09:13:42;100517.22;;;15.83;62.50
78613;BME280;67933;51.060;3.638;2023-03-23T09:16:08;100513.09;;;15.78;62.68
78613;BME280;67933;51.060;3.638;2023-03-23T09:18:34;100524.78;;;15.77;61.11
78613;BME280;67933;51.060;3.638;2023-03-23T09:21:00;100522.03;;;16.09;62.50
78613;BME280;67933;51.060;3.638;2023-03-23T09:23:26;100523.53;;;16.84;59.44
78613;BME280;67933;51.060;3.638;2023-03-23T09:25:52;100522.91;;;17.11;60.52
78613;BME280;67933;51.060;3.638;2023-03-23T09:28:18;100513.66;;;17.34;58.73
78613;BME280;67933;51.060;3.638;2023-03-23T09:30:45;100507.25;;;17.06;58.28
78613;BME280;67933;51.060;3.638;2023-03-23T09:33:10;100505.59;;;17.34;57.49
78613;BME280;67933;51.060;3.638;2023-03-23T09:35:36;100506.59;;;18.57;56.21
78613;BME280;67933;51.060;3.638;2023-03-23T09:38:04;100509.97;;;16.76;57.17
78613;BME280;67933;51.060;3.638;2023-03-23T09:43:50;100531.38;;;15.94;60.75
78613;BME280;67933;51.060;3.638;2023-03-23T09:49:16;100537.88;;;15.81;61.97
78613;BME280;67933;51.060;3.638;2023-03-23T09:51:56;100518.69;;;14.34;66.76
78613;BME280;67933;51.060;3.638;2023-03-23T09:54:37;100512.56;;;13.87;66.15
78613;BME280;67933;51.060;3.638;2023-03-23T09:57:10;100512.78;;;13.73;68.64
78613;BME280;67933;51.060;3.638;2023-03-23T09:59:42;100508.22;;;13.97;68.63
78613;BME280;67933;51.060;3.638;2023-03-23T10:02:21;100515.53;;;14.17;67.65
78613;BME280;67933;51.060;3.638;2023-03-23T10:04:54;100523.41;;;14.08;67.17
78613;BME280;67933;51.060;3.638;2023-03-23T10:07:23;100528.28;;;14.14;68.31
78613;BME280;67933;51.060;3.638;2023-03-23T10:09:54;100525.59;;;14.25;67.20
78613;BME280;67933;51.060;3.638;2023-03-23T10:12:38;100528.47;;;14.46;65.72
78613;BME280;67933;51.060;3.638;2023-03-23T10:15:29;100529.13;;;14.25;66.16
78613;BME280;67933;51.060;3.638;2023-03-23T10:18:08;100528.34;;;14.47;65.32
78613;BME280;67933;51.060;3.638;2023-03-23T10:25:42;100529.75;;;14.29;67.40
78613;BME280;67933;51.060;3.638;2023-03-23T10:28:13;100537.25;;;14.35;67.91
78613;BME280;67933;51.060;3.638;2023-03-23T10:30:57;100545.72;;;14.07;66.21
78613;BME280;67933;51.060;3.638;2023-03-23T10:33:33;100527.41;;;13.67;67.58
78613;BME280;67933;51.060;3.638;2023-03-23T10:38:48;100525.84;;;16.98;59.65
78613;BME280;67933;51.060;3.638;2023-03-23T10:41:17;100534.22;;;15.50;62.29
78613;BME280;67933;51.060;3.638;2023-03-23T10:43:44;100520.19;;;14.71;65.02
78613;BME280;67933;51.060;3.638;2023-03-23T10:49:02;100566.38;;;13.33;72.73
78613;BME280;67933;51.060;3.638;2023-03-23T10:51:36;100542.91;;;12.65;76.55
78613;BME280;67933;51.060;3.638;2023-03-23T10:54:03;100547.91;;;12.32;79.21
78613;BME280;67933;51.060;3.638;2023-03-23T10:56:41;100556.09;;;12.04;82.75
78613;BME280;67933;51.060;3.638;2023-03-23T10:59:15;100548.91;;;12.31;82.45
78613;BME280;67933;51.060;3.638;2023-03-23T11:01:48;100546.59;;;14.30;80.90
78613;BME280;67933;51.060;3.638;2023-03-23T11:04:16;100536.31;;;14.81;76.64
78613;BME280;67933;51.060;3.638;2023-03-23T11:06:47;100526.44;;;16.62;69.51
78613;BME280;67933;51.060;3.638;2023-03-23T11:09:19;100512.69;;;17.64;61.84
78613;BME280;67933;51.060;3.638;2023-03-23T11:11:50;100518.69;;;18.14;63.93
78613;BME280;67933;51.060;3.638;2023-03-23T11:14:17;100516.63;;;17.79;63.80
78613;BME280;67933;51.060;3.638;2023-03-23T11:16:52;100519.06;;;18.75;59.63
78613;BME280;67933;51.060;3.638;2023-03-23T11:19:25;100510.53;;;19.07;58.59
78613;BME280;67933;51.060;3.638;2023-03-23T11:21:53;100504.78;;;18.28;57.51
78613;BME280;67933;51.060;3.638;2023-03-23T11:24:26;100512.94;;;17.42;59.72
78613;BME280;67933;51.060;3.638;2023-03-23T11:26:53;100493.00;;;15.63;63.49
78613;BME280;67933;51.060;3.638;2023-03-23T11:29:24;100501.81;;;15.00;68.70
78613;BME280;67933;51.060;3.638;2023-03-23T11:31:53;100504.44;;;14.46;67.66
78613;BME280;67933;51.060;3.638;2023-03-23T11:34:34;100528.59;;;13.98;72.02
78613;BME280;67933;51.060;3.638;2023-03-23T11:37:01;100522.50;;;13.26;78.02
78613;BME280;67933;51.060;3.638;2023-03-23T11:39:33;100538.38;;;12.91;79.13
78613;BME280;67933;51.060;3.638;2023-03-23T11:42:13;100532.84;;;12.82;81.45
78613;BME280;67933;51.060;3.638;2023-03-23T11:44:43;100531.25;;;14.44;80.29
78613;BME280;67933;51.060;3.638;2023-03-23T11:47:31;100516.59;;;15.58;72.39
78613;BME280;67933;51.060;3.638;2023-03-23T11:52:45;100529.34;;;18.43;62.79
78613;BME280;67933;51.060;3.638;2023-03-23T11:55:19;100516.03;;;19.33;60.14
78613;BME280;67933;51.060;3.638;2023-03-23T11:57:46;100525.09;;;18.87;56.59
78613;BME280;67933;51.060;3.638;2023-03-23T12:00:19;100517.16;;;19.13;56.62
78613;BME280;67933;51.060;3.638;2023-03-23T12:05:40;100491.78;;;17.77;59.51
78613;BME280;67933;51.060;3.638;2023-03-23T12:14:37;100487.31;;;19.51;55.19
78613;BME280;67933;51.060;3.638;2023-03-23T12:20:09;100470.41;;;20.28;52.24
78613;BME280;67933;51.060;3.638;2023-03-23T12:22:55;100476.53;;;19.16;54.00
78613;BME280;67933;51.060;3.638;2023-03-23T12:28:04;100496.81;;;17.99;58.28
78613;BME280;67933;51.060;3.638;2023-03-23T12:36:06;100497.78;;;18.64;54.67
78613;BME280;67933;51.060;3.638;2023-03-23T12:41:07;100518.28;;;18.56;53.50
78613;BME280;67933;51.060;3.638;2023-03-23T12:43:49;100526.84;;;18.78;53.34
78613;BME280;67933;51.060;3.638;2023-03-23T12:46:46;100530.03;;;18.64;53.65
78613;BME280;67933;51.060;3.638;2023-03-23T12:49:43;100521.09;;;19.36;49.26
78613;BME280;67933;51.060;3.638;2023-03-23T12:52:26;100509.97;;;20.54;49.80
78613;BME280;67933;51.060;3.638;2023-03-23T12:55:04;100521.84;;;20.17;47.33
78613;BME280;67933;51.060;3.638;2023-03-23T12:57:43;100514.22;;;21.06;47.21
78613;BME280;67933;51.060;3.638;2023-03-23T13:03:06;100524.16;;;20.64;46.31
78613;BME280;67933;51.060;3.638;2023-03-23T13:05:46;100517.72;;;17.38;53.00
78613;BME280;67933;51.060;3.638;2023-03-23T13:08:23;100509.28;;;16.53;55.06
78613;BME280;67933;51.060;3.638;2023-03-23T13:10:53;100507.81;;;18.16;54.44
78613;BME280;67933;51.060;3.638;2023-03-23T13:13:39;100513.50;;;19.32;54.69
78613;BME280;67933;51.060;3.638;2023-03-23T13:16:09;100511.94;;;18.47;50.63
78613;BME280;67933;51.060;3.638;2023-03-23T13:19:08;100506.72;;;18.45;54.26
78613;BME280;67933;51.060;3.638;2023-03-23T13:21:57;100492.59;;;18.80;55.02
78613;BME280;67933;51.060;3.638;2023-03-23T13:24:26;100487.88;;;18.65;51.42
78613;BME280;67933;51.060;3.638;2023-03-23T13:26:53;100488.69;;;19.73;51.84
78613;BME280;67933;51.060;3.638;2023-03-23T13:29:23;100501.31;;;18.08;51.41
78613;BME280;67933;51.060;3.638;2023-03-23T13:31:51;100519.59;;;17.95;52.60
78613;BME280;67933;51.060;3.638;2023-03-23T13:37:05;100493.59;;;19.95;49.16
78613;BME280;67933;51.060;3.638;2023-03-23T13:39:48;100488.19;;;18.89;47.87
78613;BME280;67933;51.060;3.638;2023-03-23T13:54:49;100455.81;;;20.39;47.44
78613;BME280;67933;51.060;3.638;2023-03-23T13:57:25;100422.19;;;20.17;45.70
78613;BME280;67933;51.060;3.638;2023-03-23T13:59:59;100438.84;;;19.69;46.21
78613;BME280;67933;51.060;3.638;2023-03-23T14:02:39;100454.00;;;20.22;46.60
78613;BME280;67933;51.060;3.638;2023-03-23T14:07:59;100452.63;;;19.13;49.59
78613;BME280;67933;51.060;3.638;2023-03-23T14:10:53;100444.94;;;18.45;52.31
78613;BME280;67933;51.060;3.638;2023-03-23T14:13:45;100458.53;;;16.82;56.07
78613;BME280;67933;51.060;3.638;2023-03-23T14:16:19;100450.31;;;16.03;59.72
78613;BME280;67933;51.060;3.638;2023-03-23T14:18:54;100466.34;;;16.03;59.76
78613;BME280;67933;51.060;3.638;2023-03-23T14:24:33;100458.94;;;16.77;57.49
78613;BME280;67933;51.060;3.638;2023-03-23T14:27:21;100454.91;;;16.22;58.65